Time;durP1;ratioP1;P1;durP2;ratioP2;P2;SDS_P1;SDS_P2;PMS_P1;PMS_P2;Temp;Humidity;BMP_temperature;BMP_pressure;BME280_temperature;BME280_humidity;BME280_pressure;Samples;Min_cycle;Max_cycle;Signal;HPM_P1;HPM_P2
2023/03/06 00:03:32;;;;;;;0.00;0.00;;;;;;;-145.06;100.00;53882.25;10541703;28;20047;-82
2023/03/06 00:08:32;;;;;;;0.10;0.10;;;;;;;-145.06;100.00;53878.22;10540661;28;20404;-81
2023/03/06 00:13:33;;;;;;;0.00;0.00;;;;;;;-145.06;100.00;53902.50;10537085;28;20039;-81
2023/03/06 00:18:34;;;;;;;0.05;0.05;;;;;;;-145.06;100.00;53839.72;10539857;28;20095;-80
2023/03/06 00:23:35;;;;;;;0.00;0.00;;;;;;;-145.06;100.00;53866.06;10546096;28;20056;-80
2023/03/06 00:28:35;;;;;;;0.10;0.10;;;;;;;-145.06;100.00;53843.78;10554890;28;20253;-80
2023/03/06 00:33:35;;;;;;;0.00;0.00;;;;;;;-145.06;100.00;53904.53;10545490;28;20031;-80
2023/03/06 00:38:36;;;;;;;0.00;0.00;;;;;;;-145.06;100.00;53859.97;10526953;28;20032;-80
2023/03/06 00:43:36;;;;;;;0.00;0.00;;;;;;;-145.06;100.00;53833.66;10533173;28;20043;-80
2023/03/06 00:48:37;;;;;;;0.00;0.00;;;;;;;-145.06;100.00;53864.03;10536449;28;20114;-80
2023/03/06 00:53:38;;;;;;;0.00;0.00;;;;;;;-145.06;100.00;53876.19;10538488;28;20031;-80
2023/03/06 00:58:38;;;;;;;0.00;0.00;;;;;;;-145.06;100.00;53892.38;10547760;28;20141;-80
2023/03/06 01:03:38;;;;;;;0.10;0.10;;;;;;;-145.06;100.00;53859.97;10544086;28;20047;-81
2023/03/06 01:08:39;;;;;;;0.00;0.00;;;;;;;-145.06;100.00;53859.97;10526391;28;20032;-80
2023/03/06 01:13:39;;;;;;;0.00;0.00;;;;;;;-145.06;100.00;53878.22;10558285;28;20107;-79
2023/03/06 01:18:40;;;;;;;0.00;0.00;;;;;;;-145.06;100.00;53878.22;10527217;28;20074;-80
2023/03/06 01:23:41;;;;;;;0.00;0.00;;;;;;;-145.06;100.00;53876.19;10527447;28;20206;-81
2023/03/06 01:28:41;;;;;;;0.00;0.00;;;;;;;-145.06;100.00;53880.22;10553557;28;20182;-80
2023/03/06 01:33:41;;;;;;;0.00;0.00;;;;;;;-145.06;100.00;53878.22;10547349;28;20032;-79
2023/03/06 01:38:42;;;;;;;0.00;0.00;;;;;;;-145.06;100.00;53839.72;10553325;28;20028;-80
2023/03/06 01:43:44;;;;;;;0.00;0.00;;;;;;;-145.06;100.00;53855.94;10526108;28;20028;-80
2023/03/06 01:48:46;;;;;;;0.10;0.10;;;;;;;-145.06;100.00;53843.78;10539944;28;20028;-80
2023/03/06 01:53:49;;;;;;;0.00;0.00;;;;;;;-145.06;100.00;53855.94;10523819;28;20081;-79
2023/03/06 01:58:50;;;;;;;0.10;0.10;;;;;;;-145.06;100.00;53866.06;10537039;28;20024;-80
2023/03/06 02:03:51;;;;;;;0.10;0.10;;;;;;;-145.06;100.00;53793.16;10529812;28;20564;-80
2023/03/06 02:08:53;;;;;;;0.00;0.00;;;;;;;-145.06;100.00;53837.72;10532853;28;20103;-82
2023/03/06 02:13:53;;;;;;;0.10;0.10;;;;;;;-145.06;100.00;53884.28;10532079;28;20411;-81
2023/03/06 02:18:55;;;;;;;0.00;0.00;;;;;;;-145.06;100.00;53821.50;10525584;28;20032;-82
2023/03/06 02:24:05;;;;;;;0.00;0.00;;;;;;;-145.06;100.00;53809.34;10535012;28;20031;-80
2023/03/06 02:29:07;;;;;;;0.10;0.10;;;;;;;-145.06;100.00;53884.28;10538986;28;20103;-80
2023/03/06 02:34:27;;;;;;;0.00;0.00;;;;;;;-145.06;100.00;53884.28;10541408;28;20030;-81
2023/03/06 02:39:32;;;;;;;0.00;0.00;;;;;;;-145.06;100.00;53880.22;10533624;28;20106;-79
2023/03/06 02:44:34;;;;;;;0.10;0.10;;;;;;;-145.06;100.00;53835.69;10554210;28;20032;-81
2023/03/06 02:49:35;;;;;;;0.00;0.00;;;;;;;-145.06;100.00;53825.56;10548227;28;20037;-80
2023/03/06 02:54:35;;;;;;;0.00;0.00;;;;;;;-145.06;100.00;53841.75;10535101;28;20038;-80
2023/03/06 02:59:36;;;;;;;0.00;0.00;;;;;;;-145.06;100.00;53896.44;10537109;28;20053;-81
2023/03/06 03:04:37;;;;;;;0.00;0.00;;;;;;;-145.06;100.00;53870.09;10531613;28;20028;-81
2023/03/06 03:09:37;;;;;;;0.00;0.00;;;;;;;-145.06;100.00;53841.75;10533210;28;20353;-81
2023/03/06 03:14:37;;;;;;;0.00;0.00;;;;;;;-145.06;100.00;53866.06;10532149;28;20087;-81
2023/03/06 03:19:38;;;;;;;0.10;0.10;;;;;;;-145.06;100.00;53837.72;10532940;28;20053;-80
2023/03/06 03:24:38;;;;;;;0.00;0.00;;;;;;;-145.06;100.00;53884.28;10538068;28;20024;-79
2023/03/06 03:29:40;;;;;;;0.10;0.10;;;;;;;-145.06;100.00;53853.91;10535450;28;20024;-80
2023/03/06 03:34:40;;;;;;;0.10;0.10;;;;;;;-145.06;100.00;53874.16;10537776;28;20134;-81
2023/03/06 03:39:40;;;;;;;0.00;0.00;;;;;;;-145.06;100.00;53855.94;10550452;28;20024;-81
2023/03/06 03:44:41;;;;;;;0.00;0.00;;;;;;;-145.06;100.00;53849.84;10543792;28;20027;-81
2023/03/06 03:49:41;;;;;;;0.10;0.10;;;;;;;-145.06;100.00;53839.72;10545350;28;20090;-80
2023/03/06 03:54:41;;;;;;;0.00;0.00;;;;;;;-145.06;100.00;53888.34;10539177;28;20032;-81
2023/03/06 03:59:41;;;;;;;0.03;0.03;;;;;;;-145.06;100.00;53912.63;10553019;28;20468;-81
2023/03/06 04:04:42;;;;;;;0.00;0.00;;;;;;;-145.06;100.00;53894.41;10543473;28;20270;-80
2023/03/06 04:09:42;;;;;;;0.10;0.10;;;;;;;-145.06;100.00;53851.88;10562884;28;20335;-79
2023/03/06 04:14:42;;;;;;;0.10;0.10;;;;;;;-145.06;100.00;53827.59;10563802;28;20262;-78
2023/03/06 04:19:43;;;;;;;0.00;0.00;;;;;;;-145.06;100.00;53857.97;10543957;28;20394;-80
2023/03/06 04:24:43;;;;;;;0.10;0.10;;;;;;;-145.06;100.00;53872.13;10527413;28;20032;-80
2023/03/06 04:29:44;;;;;;;0.10;0.10;;;;;;;-145.06;100.00;53851.88;10548749;28;20035;-80
2023/03/06 04:34:44;;;;;;;0.00;0.00;;;;;;;-145.06;100.00;53880.22;10557419;28;20102;-80
2023/03/06 04:39:44;;;;;;;0.10;0.10;;;;;;;-145.06;100.00;53841.75;10550298;28;20472;-78
2023/03/06 04:44:45;;;;;;;0.03;0.03;;;;;;;-145.06;100.00;53882.25;10550583;28;20024;-79
2023/03/06 04:49:45;;;;;;;0.08;0.08;;;;;;;-145.06;100.00;53847.84;10553538;28;20040;-80
2023/03/06 04:54:45;;;;;;;0.05;0.05;;;;;;;-145.06;100.00;53855.94;10532747;28;20055;-80
2023/03/06 04:59:46;;;;;;;0.08;0.08;;;;;;;-145.06;100.00;53900.50;10532010;28;20365;-80
2023/03/06 05:04:46;;;;;;;0.10;0.10;;;;;;;-145.06;100.00;53880.22;10516947;22;20056;-80
2023/03/06 05:09:46;;;;;;;0.00;0.00;;;;;;;-145.06;100.00;53827.59;10528468;28;20266;-80
2023/03/06 05:14:47;;;;;;;0.00;0.00;;;;;;;-145.06;100.00;53843.78;10534410;28;20035;-81
2023/03/06 05:19:47;;;;;;;0.10;0.10;;;;;;;-145.06;100.00;53902.50;10531951;28;20282;-81
2023/03/06 05:24:47;;;;;;;0.03;0.03;;;;;;;-145.06;100.00;53833.66;10534220;28;20115;-82
2023/03/06 05:29:47;;;;;;;0.00;0.00;;;;;;;-145.06;100.00;53853.91;10538425;28;20466;-82
2023/03/06 05:34:48;;;;;;;0.00;0.00;;;;;;;-145.06;100.00;53853.91;10508207;28;20024;-83
2023/03/06 05:39:49;;;;;;;0.03;0.03;;;;;;;-145.06;100.00;53900.50;10531438;28;20281;-82
2023/03/06 05:44:49;;;;;;;0.08;0.08;;;;;;;-145.06;100.00;53845.81;10532255;28;20047;-82
2023/03/06 05:49:50;;;;;;;0.00;0.00;;;;;;;-145.06;100.00;53872.13;10533746;28;20032;-82
2023/03/06 05:54:52;;;;;;;0.08;0.08;;;;;;;-145.06;100.00;53855.94;10512170;28;20107;-82
2023/03/06 05:59:52;;;;;;;0.00;0.00;;;;;;;-145.06;100.00;53880.22;10532898;28;20035;-82
2023/03/06 06:04:53;;;;;;;0.05;0.05;;;;;;;-145.06;100.00;53853.91;10514722;28;20042;-80
2023/03/06 06:09:53;;;;;;;0.00;0.00;;;;;;;-145.06;100.00;53845.81;10507158;28;20024;-80
2023/03/06 06:14:53;;;;;;;0.10;0.10;;;;;;;-145.06;100.00;53894.41;10526927;28;20059;-80
2023/03/06 06:19:54;;;;;;;0.00;0.00;;;;;;;-145.06;100.00;53884.28;10509703;28;20374;-80
2023/03/06 06:24:54;;;;;;;0.00;0.00;;;;;;;-145.06;100.00;53864.03;10534509;28;20060;-80
2023/03/06 06:29:54;;;;;;;0.00;0.00;;;;;;;-145.06;100.00;53866.06;10533552;28;20506;-81
2023/03/06 06:34:55;;;;;;;0.00;0.00;;;;;;;-145.06;100.00;53843.78;10534283;28;20028;-80
2023/03/06 06:39:56;;;;;;;0.00;0.00;;;;;;;-145.06;100.00;53837.72;10525228;28;20035;-81
2023/03/06 06:44:57;;;;;;;0.00;0.00;;;;;;;-145.06;100.00;53872.13;10529562;28;20435;-81
2023/03/06 06:49:57;;;;;;;0.00;0.00;;;;;;;-145.06;100.00;53906.56;10532085;28;20024;-81
2023/03/06 06:54:57;;;;;;;0.00;0.00;;;;;;;-145.06;100.00;53906.56;10537377;28;20089;-81
2023/03/06 06:59:58;;;;;;;0.00;0.00;;;;;;;-145.06;100.00;53886.31;10527257;28;20294;-80
2023/03/06 07:04:58;;;;;;;0.00;0.00;;;;;;;-145.06;100.00;53857.97;10539931;28;20039;-80
2023/03/06 07:09:58;;;;;;;0.00;0.00;;;;;;;-145.06;100.00;53906.56;10537138;28;20029;-80
2023/03/06 07:14:59;;;;;;;0.00;0.00;;;;;;;-145.06;100.00;53892.38;10511630;28;20028;-81
2023/03/06 07:19:59;;;;;;;0.00;0.00;;;;;;;-145.06;100.00;53853.91;10523701;28;20125;-80
2023/03/06 07:24:59;;;;;;;0.00;0.00;;;;;;;-145.06;100.00;53872.13;10537040;28;20037;-80
2023/03/06 07:30:00;;;;;;;0.00;0.00;;;;;;;-145.06;100.00;53843.78;10499787;28;20311;-80
2023/03/06 07:35:00;;;;;;;0.00;0.00;;;;;;;-145.06;100.00;53868.09;10539926;28;20478;-80
2023/03/06 07:40:00;;;;;;;0.00;0.00;;;;;;;-145.06;100.00;53839.72;10517614;28;21203;-80
2023/03/06 07:45:03;;;;;;;0.00;0.00;;;;;;;-145.06;100.00;53827.59;10514471;28;20054;-81
2023/03/06 07:50:06;;;;;;;0.00;0.00;;;;;;;-145.06;100.00;53908.59;10539775;28;20047;-80
2023/03/06 07:55:07;;;;;;;0.00;0.00;;;;;;;-145.06;100.00;53833.66;10517057;28;20062;-81
2023/03/06 08:00:13;;;;;;;0.00;0.00;;;;;;;-145.06;100.00;53857.97;10516406;28;20035;-81
2023/03/06 08:05:15;;;;;;;0.00;0.00;;;;;;;-145.06;100.00;53843.78;10544908;28;20040;-82
2023/03/06 08:10:16;;;;;;;0.00;0.00;;;;;;;-145.06;100.00;53847.84;10552126;28;20032;-82
2023/03/06 08:15:16;;;;;;;0.00;0.00;;;;;;;-145.06;100.00;53845.81;10528929;28;20584;-81
2023/03/06 08:20:17;;;;;;;0.00;0.00;;;;;;;-145.06;100.00;53823.53;10527468;28;20479;-81
2023/03/06 08:25:17;;;;;;;0.00;0.00;;;;;;;-145.06;100.00;53855.94;10505146;28;20491;-81
2023/03/06 08:30:18;;;;;;;0.00;0.00;;;;;;;-145.06;100.00;53833.66;10529280;28;20024;-81
2023/03/06 08:35:18;;;;;;;0.00;0.00;;;;;;;-145.06;100.00;53843.78;10521032;28;20433;-82
2023/03/06 08:40:19;;;;;;;0.00;0.00;;;;;;;-145.06;100.00;53855.94;10542161;28;20085;-82
2023/03/06 08:45:19;;;;;;;0.00;0.00;;;;;;;-145.06;100.00;53813.41;10502229;28;20032;-82
2023/03/06 08:50:19;;;;;;;0.00;0.00;;;;;;;-145.06;100.00;53827.59;10499658;28;20105;-82
2023/03/06 08:55:19;;;;;;;0.00;0.00;;;;;;;-145.06;100.00;53827.59;10516380;28;20512;-82
2023/03/06 09:00:20;;;;;;;0.00;0.00;;;;;;;-145.06;100.00;53813.41;10504363;28;20036;-83
2023/03/06 09:05:20;;;;;;;0.10;0.10;;;;;;;-145.06;100.00;53718.22;10517285;28;20033;-82
2023/03/06 09:10:23;;;;;;;0.00;0.00;;;;;;;-145.06;100.00;53722.28;10514106;28;20475;-81
2023/03/06 09:15:24;;;;;;;0.00;0.00;;;;;;;-145.06;100.00;53738.47;10527763;28;20063;-81
2023/03/06 09:20:24;;;;;;;0.00;0.00;;;;;;;-145.06;100.00;53754.69;10514113;28;20037;-81
2023/03/06 09:25:24;;;;;;;0.00;0.00;;;;;;;-145.06;100.00;53756.69;10530676;28;20044;-81
2023/03/06 09:30:25;;;;;;;0.00;0.00;;;;;;;-145.06;100.00;53750.63;10530108;28;20702;-82
2023/03/06 09:35:25;;;;;;;0.00;0.00;;;;;;;-145.06;100.00;53740.50;10519251;28;20182;-81
2023/03/06 09:41:01;;;;;;;0.00;0.00;;;;;;;-145.06;100.00;53756.69;10522880;28;20043;-82
2023/03/06 09:46:28;;;;;;;0.00;0.00;;;;;;;-145.06;100.00;53778.97;10509177;28;20047;-82
2023/03/06 09:51:46;;;;;;;0.10;0.10;;;;;;;-145.06;100.00;53766.81;10504817;28;20058;-82
2023/03/06 09:56:49;;;;;;;0.08;0.08;;;;;;;-145.06;100.00;53791.13;10517803;28;20054;-82
2023/03/06 10:02:00;;;;;;;0.00;0.00;;;;;;;-145.06;100.00;53772.91;10520113;28;20398;-82
2023/03/06 10:07:10;;;;;;;0.10;0.10;;;;;;;-145.06;100.00;53778.97;10499996;28;20119;-82
2023/03/06 10:12:24;;;;;;;0.00;0.00;;;;;;;-145.06;100.00;53762.78;10509686;28;20089;-83
2023/03/06 10:17:30;;;;;;;0.10;0.10;;;;;;;-145.06;100.00;53783.03;10520975;28;20036;-84
2023/03/06 10:22:52;;;;;;;0.00;0.00;;;;;;;-145.06;100.00;53783.03;10518876;28;20028;-84
2023/03/06 10:28:14;;;;;;;0.10;0.10;;;;;;;-145.06;100.00;53791.13;10522357;28;20078;-84
2023/03/06 10:33:20;;;;;;;0.10;0.10;;;;;;;-145.06;100.00;53811.38;10519942;28;20032;-82
2023/03/06 10:38:24;;;;;;;0.00;0.00;;;;;;;-145.06;100.00;53799.22;10514601;28;20044;-82
2023/03/06 10:43:25;;;;;;;0.10;0.10;;;;;;;-145.06;100.00;53778.97;10518659;28;20043;-82
2023/03/06 10:48:28;;;;;;;0.00;0.00;;;;;;;-145.06;100.00;53785.06;10524146;28;20388;-82
2023/03/06 10:53:28;;;;;;;0.10;0.10;;;;;;;-145.06;100.00;53807.31;10522499;28;20058;-86
2023/03/06 10:58:32;;;;;;;0.00;0.00;;;;;;;-145.06;100.00;53799.22;10503723;28;20038;-84
2023/03/06 11:03:34;;;;;;;0.00;0.00;;;;;;;-145.06;100.00;53833.66;10524238;22;20044;-81
2023/03/06 11:08:36;;;;;;;0.10;0.10;;;;;;;-145.06;100.00;53799.22;10528527;28;20478;-83
2023/03/06 11:13:38;;;;;;;0.00;0.00;;;;;;;-145.06;100.00;53807.31;10513112;28;20028;-83
2023/03/06 11:18:41;;;;;;;0.00;0.00;;;;;;;-145.06;100.00;53835.69;10501792;28;20389;-83
2023/03/06 11:23:45;;;;;;;0.00;0.00;;;;;;;-145.06;100.00;53803.28;10510423;28;20024;-82
2023/03/06 11:29:10;;;;;;;0.00;0.00;;;;;;;-145.06;100.00;53774.94;10504445;28;20060;-82
2023/03/06 11:34:11;;;;;;;0.00;0.00;;;;;;;-145.06;100.00;53805.31;10504286;28;20086;-83
2023/03/06 11:39:25;;;;;;;0.10;0.10;;;;;;;-145.06;100.00;53815.44;10485933;28;20029;-82
2023/03/06 11:44:40;;;;;;;0.00;0.00;;;;;;;-145.06;100.00;53813.41;10505517;28;20051;-82
2023/03/06 11:49:44;;;;;;;0.00;0.00;;;;;;;-145.06;100.00;53803.28;10504716;28;20032;-83
2023/03/06 11:54:54;;;;;;;0.00;0.00;;;;;;;-145.06;100.00;53770.88;10499351;28;20025;-80
2023/03/06 12:00:26;;;;;;;0.00;0.00;;;;;;;-145.06;98.50;53811.38;10528633;28;20035;-82
2023/03/06 12:05:50;;;;;;;0.00;0.00;;;;;;;-145.06;92.75;53819.47;10519572;28;20399;-80
2023/03/06 12:10:56;;;;;;;0.00;0.00;;;;;;;-145.06;93.23;53811.38;10506091;28;20036;-82
2023/03/06 12:16:15;;;;;;;0.10;0.10;;;;;;;-145.06;97.42;53847.84;10503419;28;20024;-82
2023/03/06 12:21:25;;;;;;;0.00;0.00;;;;;;;-145.06;100.00;53855.94;10512526;28;20083;-81
2023/03/06 12:26:44;;;;;;;0.00;0.00;;;;;;;-145.06;100.00;53827.59;10486368;28;20043;-83
2023/03/06 12:32:10;;;;;;;0.00;0.00;;;;;;;-145.06;100.00;53809.34;10494431;28;20044;-80
2023/03/06 12:37:39;;;;;;;0.00;0.00;;;;;;;-145.06;100.00;53823.53;10497379;28;20032;-83
2023/03/06 12:43:00;;;;;;;0.00;0.00;;;;;;;-145.06;100.00;53823.53;10505033;28;20031;-82
2023/03/06 12:48:02;;;;;;;0.00;0.00;;;;;;;-145.06;100.00;53799.22;10501742;28;20318;-83
2023/03/06 12:53:11;;;;;;;0.00;0.00;;;;;;;-145.06;100.00;53815.44;10496888;28;20127;-82
2023/03/06 12:58:26;;;;;;;0.00;0.00;;;;;;;-145.06;100.00;53821.50;10482375;28;20063;-83
2023/03/06 13:03:43;;;;;;;0.00;0.00;;;;;;;-145.06;100.00;53809.34;10497441;28;20032;-82
2023/03/06 13:09:03;;;;;;;0.00;0.00;;;;;;;-145.06;100.00;53851.88;10520510;28;20377;-83
2023/03/06 13:14:45;;;;;;;0.00;0.00;;;;;;;-145.06;100.00;53859.97;10501867;28;20028;-82
2023/03/06 13:19:47;;;;;;;0.00;0.00;;;;;;;-145.06;100.00;53825.56;10497165;28;20032;-82
2023/03/06 13:25:10;;;;;;;0.00;0.00;;;;;;;-145.06;100.00;53799.22;10506876;28;20052;-81
2023/03/06 13:30:35;;;;;;;0.00;0.00;;;;;;;-145.06;100.00;53809.34;10503078;28;20021;-82
2023/03/06 13:35:38;;;;;;;0.00;0.00;;;;;;;-145.06;100.00;53827.59;10494419;28;20101;-80
2023/03/06 13:40:39;;;;;;;0.10;0.10;;;;;;;-145.06;100.00;53813.41;10506830;28;20060;-81
2023/03/06 13:45:43;;;;;;;0.00;0.00;;;;;;;-145.06;100.00;53813.41;10515880;28;20048;-81
2023/03/06 13:50:46;;;;;;;;;;;;;;;-145.06;100.00;53758.72;10498348;28;20035;-82
2023/03/06 13:56:21;;;;;;;0.00;0.00;;;;;;;-145.06;100.00;53831.63;10496893;28;20085;-82
2023/03/06 14:01:29;;;;;;;0.10;0.10;;;;;;;-145.06;100.00;53805.31;10487787;28;20054;-82
2023/03/06 14:06:32;;;;;;;0.00;0.00;;;;;;;-145.06;100.00;53823.53;10526680;28;20111;-80
2023/03/06 14:11:35;;;;;;;0.10;0.10;;;;;;;-145.06;100.00;53799.22;10521500;28;20092;-81
2023/03/06 14:16:40;;;;;;;0.00;0.00;;;;;;;-145.06;100.00;53819.47;10514587;28;20033;-81
2023/03/06 14:21:43;;;;;;;0.00;0.00;;;;;;;-145.06;100.00;53815.44;10500053;28;20024;-82
2023/03/06 14:26:47;;;;;;;0.10;0.10;;;;;;;-145.06;100.00;53823.53;10490630;28;20029;-81
2023/03/06 14:31:50;;;;;;;0.10;0.10;;;;;;;-145.06;100.00;53811.38;10498748;28;20088;-81
2023/03/06 14:36:53;;;;;;;0.00;0.00;;;;;;;-145.06;100.00;53797.22;10527265;28;20475;-78
2023/03/06 14:42:14;;;;;;;0.10;0.10;;;;;;;-145.06;100.00;53823.53;10517102;28;20031;-83
2023/03/06 14:47:26;;;;;;;0.00;0.00;;;;;;;-145.06;100.00;53837.72;10504249;28;20099;-81
2023/03/06 14:52:27;;;;;;;0.00;0.00;;;;;;;-145.06;100.00;53805.31;10495311;28;20032;-80
2023/03/06 14:57:28;;;;;;;0.00;0.00;;;;;;;-145.06;100.00;53831.63;10507396;28;20028;-80
2023/03/06 15:02:31;;;;;;;0.00;0.00;;;;;;;-145.06;100.00;53807.31;10497878;28;20483;-82
2023/03/06 15:07:32;;;;;;;0.10;0.10;;;;;;;-145.06;100.00;53823.53;10500504;28;20029;-79
2023/03/06 15:12:34;;;;;;;0.00;0.00;;;;;;;-145.06;100.00;53781.00;10506494;28;20032;-79
2023/03/06 15:17:45;;;;;;;0.08;0.08;;;;;;;-145.06;100.00;53833.66;10506556;28;20586;-80
2023/03/06 15:22:49;;;;;;;0.08;0.08;;;;;;;-145.06;100.00;53823.53;10492365;28;20395;-82
2023/03/06 15:27:57;;;;;;;0.00;0.00;;;;;;;-145.06;100.00;53831.63;10523840;28;20039;-80
2023/03/06 15:33:23;;;;;;;0.00;0.00;;;;;;;-145.06;100.00;53823.53;10495930;28;20564;-81
2023/03/06 15:38:36;;;;;;;0.00;0.00;;;;;;;-145.06;99.78;53791.13;10503384;28;20028;-81
2023/03/06 15:43:38;;;;;;;0.00;0.00;;;;;;;-145.06;97.29;53807.31;10520085;28;20050;-80
2023/03/06 15:48:38;;;;;;;0.00;0.00;;;;;;;-145.06;96.86;53833.66;10504098;28;20020;-80
2023/03/06 15:53:38;;;;;;;0.00;0.00;;;;;;;-145.06;97.20;53793.16;10517634;28;20483;-79
2023/03/06 15:58:39;;;;;;;0.00;0.00;;;;;;;-145.06;99.13;53789.09;10519170;28;20025;-80
2023/03/06 16:03:40;;;;;;;0.00;0.00;;;;;;;-145.06;97.72;53855.94;10520751;28;20381;-80
2023/03/06 16:08:40;;;;;;;0.00;0.00;;;;;;;-145.06;98.04;53811.38;10510890;28;20078;-81
2023/03/06 16:13:40;;;;;;;0.00;0.00;;;;;;;-145.06;96.53;53766.81;10501904;28;20056;-81
2023/03/06 16:18:52;;;;;;;0.00;0.00;;;;;;;-145.06;98.20;53783.03;10507840;28;20048;-79
2023/03/06 16:23:53;;;;;;;0.00;0.00;;;;;;;-145.06;100.00;53781.00;10521237;28;20035;-81
2023/03/06 16:28:54;;;;;;;0.00;0.00;;;;;;;-145.06;100.00;53805.31;10508744;28;20023;-81
2023/03/06 16:33:54;;;;;;;0.00;0.00;;;;;;;-145.06;100.00;53857.97;10528198;28;20372;-82
2023/03/06 16:38:54;;;;;;;0.00;0.00;;;;;;;-145.06;100.00;53845.81;10502436;28;20110;-81
2023/03/06 16:43:54;;;;;;;0.00;0.00;;;;;;;-145.06;100.00;53829.59;10509451;28;20039;-80
2023/03/06 16:48:55;;;;;;;0.00;0.00;;;;;;;-145.06;100.00;53823.53;10527125;28;20410;-80
2023/03/06 16:53:55;;;;;;;0.00;0.00;;;;;;;-145.06;100.00;53827.59;10515324;28;20254;-81
2023/03/06 16:58:55;;;;;;;0.00;0.00;;;;;;;-145.06;100.00;53819.47;10502239;28;20107;-81
2023/03/06 17:03:56;;;;;;;0.00;0.00;;;;;;;-145.06;100.00;53819.47;10540941;22;20159;-93
2023/03/06 17:08:59;;;;;;;0.00;0.00;;;;;;;-145.06;100.00;53823.53;10539888;28;20119;-92
2023/03/06 17:14:00;;;;;;;0.00;0.00;;;;;;;-145.06;100.00;53795.19;10533486;28;20036;-92
2023/03/06 17:19:01;;;;;;;0.00;0.00;;;;;;;-145.06;100.00;53831.63;10522420;28;20083;-92
2023/03/06 17:24:02;;;;;;;0.00;0.00;;;;;;;-145.06;100.00;53807.31;10489269;28;20038;-92
2023/03/06 17:29:03;;;;;;;0.00;0.00;;;;;;;-145.06;100.00;53864.03;10491414;28;20074;-92
2023/03/06 17:34:03;;;;;;;0.00;0.00;;;;;;;-145.06;100.00;53829.59;10518384;28;20024;-92
2023/03/06 17:39:04;;;;;;;0.00;0.00;;;;;;;-145.06;100.00;53851.88;10524853;28;20032;-91
2023/03/06 17:44:04;;;;;;;0.00;0.00;;;;;;;-145.06;100.00;53845.81;10504240;28;20031;-89
2023/03/06 17:49:04;;;;;;;0.00;0.00;;;;;;;-145.06;100.00;53831.63;10503751;28;20036;-89
2023/03/06 17:54:04;;;;;;;0.00;0.00;;;;;;;-145.06;100.00;53835.69;10526594;28;20484;-89
2023/03/06 17:59:05;;;;;;;0.00;0.00;;;;;;;-145.06;100.00;53795.19;10510554;28;20085;-89
2023/03/06 18:04:06;;;;;;;0.00;0.00;;;;;;;-145.06;100.00;53823.53;10525152;28;20042;-89
2023/03/06 18:09:08;;;;;;;0.00;0.00;;;;;;;-145.06;100.00;53847.84;10504896;28;20753;-89
2023/03/06 18:14:09;;;;;;;0.00;0.00;;;;;;;-145.06;100.00;53829.59;10490156;28;20037;-89
2023/03/06 18:19:10;;;;;;;0.00;0.00;;;;;;;-145.06;100.00;53823.53;10509375;28;20036;-89
2023/03/06 18:24:11;;;;;;;0.00;0.00;;;;;;;-145.06;100.00;53843.78;10513277;28;20032;-89
2023/03/06 18:29:11;;;;;;;0.00;0.00;;;;;;;-145.06;100.00;53851.88;10519489;28;20065;-89
2023/03/06 18:34:13;;;;;;;0.00;0.00;;;;;;;-145.06;100.00;53839.72;10511244;28;20596;-89
2023/03/06 18:39:14;;;;;;;0.00;0.00;;;;;;;-145.06;100.00;53817.47;10511392;28;20107;-89
2023/03/06 18:44:16;;;;;;;0.00;0.00;;;;;;;-145.06;100.00;53799.22;10508226;28;20089;-88
2023/03/06 18:49:16;;;;;;;0.00;0.00;;;;;;;-145.06;100.00;53811.38;10506801;28;20027;-89
2023/03/06 18:54:17;;;;;;;0.00;0.00;;;;;;;-145.06;100.00;53849.84;10519900;28;20036;-88
2023/03/06 18:59:19;;;;;;;0.00;0.00;;;;;;;-145.06;100.00;53823.53;10514828;28;20036;-89
2023/03/06 19:04:19;;;;;;;0.00;0.00;;;;;;;-145.06;100.00;53835.69;10535149;28;20043;-89
2023/03/06 19:09:20;;;;;;;0.00;0.00;;;;;;;-145.06;100.00;53823.53;10514653;28;20038;-89
2023/03/06 19:14:20;;;;;;;0.00;0.00;;;;;;;-145.06;100.00;53855.94;10509183;28;20270;-89
2023/03/06 19:19:25;;;;;;;0.00;0.00;;;;;;;-145.06;100.00;53839.72;10517291;28;20032;-89
2023/03/06 19:24:25;;;;;;;0.00;0.00;;;;;;;-145.06;100.00;53837.72;10517312;28;20131;-88
2023/03/06 19:29:25;;;;;;;0.00;0.00;;;;;;;-145.06;100.00;53845.81;10538561;28;20555;-89
2023/03/06 19:34:26;;;;;;;0.00;0.00;;;;;;;-145.06;100.00;53837.72;10517083;28;20032;-89
2023/03/06 19:39:26;;;;;;;0.00;0.00;;;;;;;-145.06;100.00;53851.88;10514249;28;20036;-89
2023/03/06 19:44:26;;;;;;;0.00;0.00;;;;;;;-145.06;100.00;53805.31;10515922;28;20039;-89
2023/03/06 19:49:27;;;;;;;0.00;0.00;;;;;;;-145.06;100.00;53823.53;10535216;28;20036;-89
2023/03/06 19:54:27;;;;;;;0.05;0.05;;;;;;;-145.06;100.00;53821.50;10536088;28;20071;-88
2023/03/06 19:59:27;;;;;;;0.00;0.00;;;;;;;-145.06;100.00;53823.53;10532046;28;20043;-89
2023/03/06 20:04:31;;;;;;;0.00;0.00;;;;;;;-145.06;100.00;53811.38;10518946;28;20050;-88
2023/03/06 20:09:32;;;;;;;0.00;0.00;;;;;;;-145.06;100.00;53825.56;10515563;28;20058;-89
2023/03/06 20:14:33;;;;;;;0.00;0.00;;;;;;;-145.06;100.00;53839.72;10531835;28;20112;-89
2023/03/06 20:19:33;;;;;;;0.00;0.00;;;;;;;-145.06;100.00;53837.72;10537183;28;20032;-88
2023/03/06 20:24:33;;;;;;;0.00;0.00;;;;;;;-145.06;100.00;53855.94;10516980;28;20036;-88
2023/03/06 20:29:34;;;;;;;0.00;0.00;;;;;;;-145.06;100.00;53833.66;10504213;28;20032;-88
2023/03/06 20:34:37;;;;;;;0.00;0.00;;;;;;;-145.06;100.00;53805.31;10530629;28;20395;-87
2023/03/06 20:39:38;;;;;;;0.00;0.00;;;;;;;-145.06;100.00;53829.59;10520157;28;20032;-90
2023/03/06 20:44:38;;;;;;;0.00;0.00;;;;;;;-145.06;100.00;53843.78;10513475;28;20035;-88
2023/03/06 20:49:41;;;;;;;0.00;0.00;;;;;;;-145.06;100.00;53827.59;10536943;28;20040;-89
2023/03/06 20:54:48;;;;;;;0.00;0.00;;;;;;;-145.06;100.00;53876.19;10513162;28;20043;-89
2023/03/06 20:59:49;;;;;;;0.10;0.10;;;;;;;-145.06;100.00;53823.53;10504319;28;20044;-88
2023/03/06 21:04:49;;;;;;;0.00;0.00;;;;;;;-145.06;100.00;53831.63;10534988;28;20032;-89
2023/03/06 21:09:51;;;;;;;0.00;0.00;;;;;;;-145.06;100.00;53855.94;10514510;28;20063;-89
2023/03/06 21:14:51;;;;;;;0.00;0.00;;;;;;;-145.06;100.00;53827.59;10529485;28;20059;-89
2023/03/06 21:19:51;;;;;;;0.00;0.00;;;;;;;-145.06;100.00;53849.84;10535041;28;20032;-89
2023/03/06 21:24:51;;;;;;;0.00;0.00;;;;;;;-145.06;100.00;53821.50;10519386;28;20483;-89
2023/03/06 21:29:52;;;;;;;0.00;0.00;;;;;;;-145.06;100.00;53835.69;10492201;28;20039;-89
2023/03/06 21:34:52;;;;;;;0.00;0.00;;;;;;;-145.06;100.00;53815.44;10494614;28;20032;-89
2023/03/06 21:39:53;;;;;;;0.00;0.00;;;;;;;-145.06;100.00;53847.84;10526262;28;20346;-92
2023/03/06 21:44:53;;;;;;;0.00;0.00;;;;;;;-145.06;100.00;53825.56;10513277;28;20407;-91
2023/03/06 21:49:53;;;;;;;0.00;0.00;;;;;;;-145.06;100.00;53845.81;10521098;28;20028;-93
2023/03/06 21:54:54;;;;;;;0.00;0.00;;;;;;;-145.06;100.00;53876.19;10524769;28;20115;-93
2023/03/06 21:59:57;;;;;;;0.00;0.00;;;;;;;-145.06;100.00;53829.59;10522236;28;20033;-90
2023/03/06 22:04:57;;;;;;;0.00;0.00;;;;;;;-145.06;100.00;53813.41;10520643;28;20185;-92
2023/03/06 22:09:57;;;;;;;0.00;0.00;;;;;;;-145.06;100.00;53833.66;10516886;28;20031;-90
2023/03/06 22:14:58;;;;;;;0.00;0.00;;;;;;;-145.06;100.00;53835.69;10522895;28;20258;-91
2023/03/06 22:19:58;;;;;;;0.00;0.00;;;;;;;-145.06;100.00;53829.59;10538109;28;20025;-93
2023/03/06 22:24:59;;;;;;;0.00;0.00;;;;;;;-145.06;100.00;53851.88;10530756;28;20040;-94
2023/03/06 22:29:59;;;;;;;0.00;0.00;;;;;;;-145.06;100.00;53793.16;10525673;28;20025;-92
2023/03/06 22:34:59;;;;;;;0.00;0.00;;;;;;;-145.06;100.00;53849.84;10531475;28;20028;-91
2023/03/06 22:39:59;;;;;;;0.00;0.00;;;;;;;-145.06;100.00;53864.03;10523853;28;20062;-92
2023/03/06 22:45:00;;;;;;;0.00;0.00;;;;;;;-145.06;100.00;53811.38;10534880;28;20270;-93